createdAt,value
2023-04-10T00:00:53.202Z,0.06
2023-04-10T00:03:22.388Z,0.08
2023-04-10T00:05:50.168Z,0.00
2023-04-10T00:08:25.615Z,-0.03
2023-04-10T00:10:54.469Z,-0.01
2023-04-10T00:13:22.112Z,0.00
2023-04-10T00:15:50.184Z,0.00
2023-04-10T00:18:17.883Z,-0.03
2023-04-10T00:20:46.865Z,-0.05
2023-04-10T00:23:14.581Z,-0.05
2023-04-10T00:25:42.232Z,-0.08
2023-04-10T00:28:09.896Z,-0.09
2023-04-10T00:30:37.609Z,-0.14
2023-04-10T00:33:05.603Z,-0.14
2023-04-10T00:35:33.477Z,-0.17
2023-04-10T00:38:02.501Z,-0.21
2023-04-10T00:40:30.736Z,-0.20
2023-04-10T00:42:58.473Z,-0.23
2023-04-10T00:45:26.442Z,-0.25
2023-04-10T00:47:54.398Z,-0.30
2023-04-10T00:50:22.457Z,-0.32
2023-04-10T00:52:51.870Z,-0.35
2023-04-10T00:55:21.199Z,-0.34
2023-04-10T00:57:49.022Z,-0.34
2023-04-10T01:00:17.258Z,-0.34
2023-04-10T01:02:45.167Z,-0.33
2023-04-10T01:05:13.699Z,-0.35
2023-04-10T01:07:50.381Z,-0.35
2023-04-10T01:10:21.695Z,-0.38
2023-04-10T01:12:57.136Z,-0.43
2023-04-10T01:15:26.689Z,-0.48
2023-04-10T01:17:57.516Z,-0.52
2023-04-10T01:20:26.295Z,-0.55
2023-04-10T01:23:07.913Z,-0.57
2023-04-10T01:25:44.900Z,-0.60
2023-04-10T01:28:22.893Z,-0.61
2023-04-10T01:30:53.091Z,-0.64
2023-04-10T01:33:22.551Z,-0.62
2023-04-10T01:35:53.568Z,-0.61
2023-04-10T01:38:22.642Z,-0.67
2023-04-10T01:40:51.997Z,-0.70
2023-04-10T01:43:21.543Z,-0.71
2023-04-10T01:45:51.208Z,-0.69
2023-04-10T01:48:20.628Z,-0.69
2023-04-10T01:50:48.521Z,-0.69
2023-04-10T01:53:16.966Z,-0.70
2023-04-10T01:55:45.041Z,-0.74
2023-04-10T01:58:13.131Z,-0.74
2023-04-10T02:00:41.725Z,-0.76
2023-04-10T02:03:09.867Z,-0.77
2023-04-10T02:05:43.346Z,-0.80
2023-04-10T02:08:13.623Z,-0.83
2023-04-10T02:10:45.919Z,-0.84
2023-04-10T02:13:15.746Z,-0.89
2023-04-10T02:15:44.850Z,-0.92
2023-04-10T02:18:12.887Z,-0.93
2023-04-10T02:20:42.585Z,-0.91
2023-04-10T02:23:10.327Z,-0.89
2023-04-10T02:25:37.927Z,-0.91
2023-04-10T02:28:06.166Z,-0.95
2023-04-10T02:30:34.093Z,-0.98
2023-04-10T02:33:01.877Z,-0.97
2023-04-10T02:35:29.777Z,-1.00
2023-04-10T02:37:58.819Z,-1.02
2023-04-10T02:40:26.506Z,-1.00
2023-04-10T02:42:54.150Z,-1.01
2023-04-10T02:45:21.871Z,-0.98
2023-04-10T02:47:49.610Z,-0.96
2023-04-10T02:50:18.211Z,-0.99
2023-04-10T02:52:45.915Z,-1.03
2023-04-10T02:55:14.992Z,-1.09
2023-04-10T02:57:42.932Z,-1.12
2023-04-10T03:00:11.415Z,-1.19
2023-04-10T03:02:39.278Z,-1.19
2023-04-10T03:05:08.788Z,-1.17
2023-04-10T03:07:36.582Z,-1.20
2023-04-10T03:10:04.291Z,-1.20
2023-04-10T03:12:33.593Z,-1.17
2023-04-10T03:15:01.269Z,-1.19
2023-04-10T03:17:28.997Z,-1.23
2023-04-10T03:19:56.860Z,-1.23
2023-04-10T03:22:24.615Z,-1.22
2023-04-10T03:24:52.703Z,-1.25
2023-04-10T03:27:20.728Z,-1.25
2023-04-10T03:29:49.796Z,-1.25
2023-04-10T03:32:17.472Z,-1.25
2023-04-10T03:34:45.207Z,-1.29
2023-04-10T03:37:12.902Z,-1.33
2023-04-10T03:39:40.500Z,-1.34
2023-04-10T03:42:08.173Z,-1.35
2023-04-10T03:44:35.908Z,-1.36
2023-04-10T03:47:04.946Z,-1.36
2023-04-10T03:49:32.737Z,-1.37
2023-04-10T03:52:00.388Z,-1.42
2023-04-10T03:54:28.056Z,-1.44
2023-04-10T03:56:56.639Z,-1.44
2023-04-10T03:59:28.431Z,-1.44
2023-04-10T04:02:07.852Z,-1.41
2023-04-10T04:04:35.754Z,-1.40
2023-04-10T04:07:03.621Z,-1.42
2023-04-10T04:09:31.295Z,-1.41
2023-04-10T04:11:58.969Z,-1.43
2023-04-10T04:14:26.614Z,-1.44
2023-04-10T04:16:54.298Z,-1.43
2023-04-10T04:19:23.422Z,-1.47
2023-04-10T04:21:51.061Z,-1.50
2023-04-10T04:24:18.715Z,-1.49
2023-04-10T04:26:46.636Z,-1.44
2023-04-10T04:29:14.341Z,-1.42
2023-04-10T04:31:42.048Z,-1.37
2023-04-10T04:34:09.908Z,-1.32
2023-04-10T04:36:39.876Z,-1.19
2023-04-10T04:39:07.494Z,-1.03
2023-04-10T04:41:35.189Z,-0.61
2023-04-10T04:44:03.145Z,-0.67
2023-04-10T04:46:30.899Z,-0.99
2023-04-10T04:48:58.620Z,-1.08
2023-04-10T04:51:27.159Z,-1.08
2023-04-10T04:53:56.402Z,-1.05
2023-04-10T04:56:24.267Z,-1.00
2023-04-10T04:58:52.073Z,-0.95
2023-04-10T05:01:20.081Z,-0.90
2023-04-10T05:03:47.838Z,-0.80
2023-04-10T05:06:15.639Z,-0.73
2023-04-10T05:08:43.244Z,-0.70
2023-04-10T05:11:12.312Z,-0.62
2023-04-10T05:13:40.018Z,-0.53
2023-04-10T05:16:08.231Z,-0.42
2023-04-10T05:18:36.418Z,-0.34
2023-04-10T05:21:04.206Z,-0.25
2023-04-10T05:23:31.920Z,-0.19
2023-04-10T05:25:59.531Z,-0.13
2023-04-10T05:28:28.585Z,-0.09
2023-04-10T05:30:56.343Z,-0.06
2023-04-10T05:33:24.018Z,0.01
2023-04-10T05:35:53.401Z,0.04
2023-04-10T05:38:21.109Z,0.13
2023-04-10T05:40:49.115Z,0.19
2023-04-10T05:43:16.841Z,0.27
2023-04-10T05:45:46.378Z,0.34
2023-04-10T05:48:14.157Z,0.39
2023-04-10T05:50:41.820Z,0.46
2023-04-10T05:53:12.229Z,0.52
2023-04-10T05:55:40.012Z,0.59
2023-04-10T05:58:07.763Z,0.67
2023-04-10T06:00:35.500Z,0.75
2023-04-10T06:03:04.604Z,1.28
2023-04-10T06:05:32.382Z,2.12
2023-04-10T06:08:00.124Z,2.51
2023-04-10T06:10:29.553Z,2.75
2023-04-10T06:12:57.248Z,2.91
2023-04-10T06:15:24.981Z,2.99
2023-04-10T06:17:54.000Z,3.01
2023-04-10T06:20:23.283Z,3.22
2023-04-10T06:22:50.947Z,3.21
2023-04-10T06:25:18.750Z,3.45
2023-04-10T06:27:46.606Z,3.46
2023-04-10T06:30:14.332Z,3.65
2023-04-10T06:32:42.035Z,3.61
2023-04-10T06:35:10.470Z,3.63
2023-04-10T06:37:39.586Z,3.52
2023-04-10T06:40:08.821Z,3.60
2023-04-10T06:42:36.920Z,3.75
2023-04-10T06:45:05.251Z,3.84
2023-04-10T06:47:33.136Z,3.72
2023-04-10T06:50:00.847Z,3.51
2023-04-10T06:52:28.589Z,3.48
2023-04-10T06:54:57.561Z,3.56
2023-04-10T06:57:25.335Z,3.61
2023-04-10T06:59:53.019Z,3.68
2023-04-10T07:02:20.896Z,3.73
2023-04-10T07:04:48.687Z,3.84
2023-04-10T07:07:16.515Z,3.99
2023-04-10T07:09:44.195Z,4.05
2023-04-10T07:12:13.342Z,4.13
2023-04-10T07:14:41.342Z,4.24
2023-04-10T07:17:09.252Z,4.37
2023-04-10T07:19:38.144Z,4.42
2023-04-10T07:22:05.899Z,4.52
2023-04-10T07:24:33.615Z,4.57
2023-04-10T07:27:01.978Z,4.68
2023-04-10T07:29:31.313Z,4.78
2023-04-10T07:31:59.145Z,4.84
2023-04-10T07:34:26.969Z,4.84
2023-04-10T07:36:54.633Z,4.96
2023-04-10T07:39:22.304Z,5.08
2023-04-10T07:41:49.998Z,5.23
2023-04-10T07:44:17.671Z,5.27
2023-04-10T07:46:46.667Z,5.37
2023-04-10T07:49:14.330Z,5.38
2023-04-10T07:51:41.986Z,5.47
2023-04-10T07:54:09.645Z,5.58
2023-04-10T07:56:37.325Z,5.57
2023-04-10T07:59:04.940Z,5.68
2023-04-10T08:01:33.375Z,5.79
2023-04-10T08:04:05.565Z,5.84
2023-04-10T08:06:33.808Z,5.82
2023-04-10T08:09:02.116Z,5.81
2023-04-10T08:11:30.514Z,5.95
2023-04-10T08:14:01.556Z,6.05
2023-04-10T08:16:30.200Z,6.14
2023-04-10T08:18:58.596Z,6.21
2023-04-10T08:21:28.333Z,6.35
2023-04-10T08:23:56.816Z,6.30
2023-04-10T08:26:24.664Z,6.32
2023-04-10T08:28:53.614Z,6.33
2023-04-10T08:31:22.039Z,6.31
2023-04-10T08:33:49.816Z,6.47
2023-04-10T08:36:19.863Z,6.61
2023-04-10T08:38:49.567Z,6.75
2023-04-10T08:41:17.801Z,6.85
2023-04-10T08:43:46.347Z,6.85
2023-04-10T08:46:14.614Z,6.98
2023-04-10T08:48:46.936Z,7.10
2023-04-10T08:51:20.162Z,7.15
2023-04-10T08:53:52.525Z,7.30
2023-04-10T08:56:20.643Z,7.28
2023-04-10T08:58:48.417Z,7.24
2023-04-10T09:01:16.370Z,7.30
2023-04-10T09:03:44.244Z,7.43
2023-04-10T09:06:12.151Z,7.50
2023-04-10T09:08:39.772Z,7.38
2023-04-10T09:11:09.071Z,7.47
2023-04-10T09:13:37.978Z,7.50
2023-04-10T09:16:06.274Z,7.43
2023-04-10T09:18:44.181Z,7.51
2023-04-10T09:21:12.625Z,7.58
2023-04-10T09:23:40.324Z,7.57
2023-04-10T09:29:02.696Z,7.65
2023-04-10T09:31:31.867Z,7.75
2023-04-10T09:34:10.072Z,7.66
2023-04-10T09:36:38.309Z,7.69
2023-04-10T09:39:06.524Z,7.69
2023-04-10T09:41:34.354Z,7.74
2023-04-10T09:44:09.947Z,7.75
2023-04-10T09:46:37.686Z,7.75
2023-04-10T09:49:07.369Z,7.85
2023-04-10T09:51:35.825Z,7.87
2023-04-10T09:54:03.836Z,7.90
2023-04-10T09:56:31.607Z,8.01
2023-04-10T09:59:00.282Z,8.09
2023-04-10T10:01:30.537Z,8.23
2023-04-10T10:04:00.325Z,8.26
2023-04-10T10:06:27.948Z,8.28
2023-04-10T10:08:56.097Z,8.45
2023-04-10T10:11:25.850Z,8.48
2023-04-10T10:13:54.111Z,8.62
2023-04-10T10:16:22.706Z,8.70
2023-04-10T10:18:56.313Z,8.77
2023-04-10T10:21:24.978Z,8.78
2023-04-10T10:23:54.845Z,8.74
2023-04-10T10:26:23.375Z,8.67
2023-04-10T10:28:52.374Z,8.71
2023-04-10T10:31:20.310Z,8.86
2023-04-10T10:33:48.852Z,8.87
2023-04-10T10:36:19.131Z,8.91
2023-04-10T10:38:52.423Z,8.90
2023-04-10T10:41:25.271Z,8.81
2023-04-10T10:43:57.003Z,8.90
2023-04-10T10:46:33.774Z,8.97
2023-04-10T10:49:02.274Z,8.97
2023-04-10T10:51:48.114Z,9.07
2023-04-10T10:54:33.580Z,9.05
2023-04-10T10:57:01.483Z,9.11
2023-04-10T10:59:47.789Z,9.32
2023-04-10T11:02:16.852Z,9.51
2023-04-10T11:04:45.090Z,9.59
2023-04-10T11:07:14.336Z,9.77
2023-04-10T11:09:49.139Z,9.89
2023-04-10T11:12:17.257Z,9.89
2023-04-10T11:14:46.218Z,9.83
2023-04-10T11:17:13.887Z,9.93
2023-04-10T11:20:01.068Z,10.04
2023-04-10T11:22:30.078Z,10.04
2023-04-10T11:24:59.005Z,10.03
2023-04-10T11:27:39.857Z,10.04
2023-04-10T11:30:22.630Z,10.05
2023-04-10T11:32:50.958Z,10.16
2023-04-10T11:35:19.967Z,10.30
2023-04-10T11:37:49.184Z,10.42
2023-04-10T11:40:17.266Z,10.47
2023-04-10T11:42:44.948Z,10.44
2023-04-10T11:45:26.374Z,10.46
2023-04-10T11:47:54.525Z,10.51
2023-04-10T11:50:22.739Z,10.54
2023-04-10T11:52:53.430Z,10.44
2023-04-10T11:55:37.793Z,10.32
2023-04-10T11:58:05.538Z,10.45
2023-04-10T12:00:33.318Z,10.50
2023-04-10T12:03:01.142Z,10.56
2023-04-10T12:05:28.927Z,10.53
2023-04-10T12:07:58.385Z,10.60
2023-04-10T12:10:26.278Z,10.54
2023-04-10T12:12:53.916Z,10.55
2023-04-10T12:15:27.921Z,10.66
2023-04-10T12:17:56.171Z,10.77
2023-04-10T12:20:27.770Z,10.81
2023-04-10T12:23:01.260Z,10.83
2023-04-10T12:25:30.515Z,10.76
2023-04-10T12:27:58.304Z,10.78
2023-04-10T12:30:26.087Z,10.71
2023-04-10T12:32:54.454Z,10.75
2023-04-10T12:35:22.168Z,10.75
2023-04-10T12:37:50.375Z,10.71
2023-04-10T12:40:18.375Z,10.74
2023-04-10T12:42:47.505Z,10.79
2023-04-10T12:45:15.703Z,10.88
2023-04-10T12:47:47.645Z,11.04
2023-04-10T12:50:16.037Z,11.03
2023-04-10T12:52:44.431Z,11.00
2023-04-10T12:55:13.110Z,10.88
2023-04-10T12:59:09.323Z,10.99
2023-04-10T13:01:38.753Z,11.04
2023-04-10T13:04:06.899Z,11.04
2023-04-10T13:06:42.941Z,11.13
2023-04-10T13:09:10.741Z,11.02
2023-04-10T13:11:38.664Z,11.09
2023-04-10T13:14:06.540Z,11.12
2023-04-10T13:16:35.942Z,11.14
2023-04-10T13:19:04.020Z,11.07
2023-04-10T13:21:31.943Z,11.18
2023-04-10T13:23:59.917Z,11.24
2023-04-10T13:26:28.088Z,11.25
2023-04-10T13:28:56.381Z,11.32
2023-04-10T13:31:24.532Z,11.43
2023-04-10T13:33:53.728Z,11.44
2023-04-10T13:36:21.890Z,11.42
2023-04-10T13:38:49.895Z,11.38
2023-04-10T13:41:17.779Z,11.48
2023-04-10T13:43:45.740Z,11.50
2023-04-10T13:46:13.742Z,11.36
2023-04-10T13:48:42.293Z,11.31
2023-04-10T13:51:11.683Z,11.30
2023-04-10T13:53:39.644Z,11.21
2023-04-10T13:56:08.735Z,11.16
2023-04-10T13:58:37.165Z,11.14
2023-04-10T14:01:05.424Z,11.21
2023-04-10T14:07:15.338Z,11.32
2023-04-10T14:09:43.216Z,11.38
2023-04-10T14:12:11.992Z,11.38
2023-04-10T14:14:39.848Z,11.40
2023-04-10T14:17:07.741Z,11.36
2023-04-10T14:19:36.615Z,11.42
2023-04-10T14:22:04.454Z,11.43
2023-04-10T14:24:33.757Z,11.47
2023-04-10T14:27:01.935Z,11.46
2023-04-10T14:32:00.891Z,11.49
2023-04-10T14:34:28.861Z,11.47
2023-04-10T14:36:56.777Z,11.49
2023-04-10T14:39:25.602Z,11.48
2023-04-10T14:41:54.869Z,11.45
2023-04-10T14:44:22.769Z,11.46
2023-04-10T14:46:50.713Z,11.38
2023-04-10T14:49:18.604Z,11.33
2023-04-10T14:51:48.620Z,11.36
2023-04-10T14:54:17.058Z,11.34
2023-04-10T14:56:45.093Z,11.30
2023-04-10T14:59:14.416Z,11.26
2023-04-10T15:01:42.370Z,11.24
2023-04-10T15:04:11.785Z,11.21
2023-04-10T15:06:39.700Z,11.16
2023-04-10T15:09:07.997Z,11.06
2023-04-10T15:11:35.943Z,11.07
2023-04-10T15:14:03.873Z,10.98
2023-04-10T15:16:33.194Z,10.94
2023-04-10T15:19:01.148Z,10.88
2023-04-10T15:21:28.969Z,10.81
2023-04-10T15:23:56.949Z,10.74
2023-04-10T15:26:25.023Z,10.70
2023-04-10T15:28:53.880Z,10.61
2023-04-10T15:31:23.372Z,10.52
2023-04-10T15:33:53.571Z,10.47
2023-04-10T15:36:21.728Z,10.43
2023-04-10T15:38:50.368Z,10.37
2023-04-10T15:41:18.419Z,10.32
2023-04-10T15:43:46.580Z,10.27
2023-04-10T15:46:15.859Z,10.23
2023-04-10T15:48:43.687Z,10.23
2023-04-10T15:51:13.100Z,10.26
2023-04-10T15:53:41.065Z,10.29
2023-04-10T15:56:09.636Z,10.26
2023-04-10T15:58:37.488Z,10.26
2023-04-10T16:01:06.298Z,10.21
2023-04-10T16:03:35.081Z,10.21
2023-04-10T16:06:03.187Z,10.17
2023-04-10T16:08:32.563Z,10.13
2023-04-10T16:11:00.433Z,10.04
2023-04-10T16:13:28.314Z,9.99
2023-04-10T16:15:56.255Z,9.94
2023-04-10T16:18:24.159Z,9.89
2023-04-10T16:20:52.137Z,9.86
2023-04-10T16:23:20.304Z,9.83
2023-04-10T16:25:49.618Z,9.78
2023-04-10T16:28:17.515Z,9.72
2023-04-10T16:30:48.870Z,9.66
2023-04-10T16:33:16.840Z,9.61
2023-04-10T16:35:44.742Z,9.57
2023-04-10T16:38:12.779Z,9.53
2023-04-10T16:40:40.668Z,9.48
2023-04-10T16:43:11.191Z,9.39
2023-04-10T16:45:39.076Z,9.27
2023-04-10T16:48:07.024Z,9.18
2023-04-10T16:50:38.121Z,9.12
2023-04-10T16:53:06.063Z,9.03
2023-04-10T16:55:33.973Z,8.95
2023-04-10T16:58:01.838Z,8.87
2023-04-10T17:00:31.289Z,8.79
2023-04-10T17:03:00.245Z,8.70
2023-04-10T17:05:34.365Z,8.62
2023-04-10T17:08:02.271Z,8.55
2023-04-10T17:10:30.239Z,8.48
2023-04-10T17:12:58.236Z,8.39
2023-04-10T17:15:26.119Z,8.29
2023-04-10T17:17:55.442Z,8.23
2023-04-10T17:20:23.285Z,8.15
2023-04-10T17:22:51.216Z,8.03
2023-04-10T17:25:19.164Z,7.92
2023-04-10T17:27:47.238Z,7.82
2023-04-10T17:30:15.679Z,7.74
2023-04-10T17:32:43.748Z,7.68
2023-04-10T17:35:13.168Z,7.56
2023-04-10T17:37:40.994Z,7.46
2023-04-10T17:40:10.036Z,7.37
2023-04-10T17:42:38.004Z,7.25
2023-04-10T17:45:06.810Z,7.16
2023-04-10T17:47:34.783Z,7.09
2023-04-10T17:50:02.769Z,7.01
2023-04-10T17:52:32.164Z,6.96
2023-04-10T17:55:01.564Z,6.88
2023-04-10T17:57:29.820Z,6.82
2023-04-10T17:59:57.772Z,6.77
2023-04-10T18:02:25.848Z,6.69
2023-04-10T18:04:53.821Z,6.62
2023-04-10T18:07:21.736Z,6.55
2023-04-10T18:09:50.976Z,6.50
2023-04-10T18:12:18.908Z,6.35
2023-04-10T18:14:48.175Z,6.21
2023-04-10T18:17:16.094Z,6.12
2023-04-10T18:19:43.982Z,6.01
2023-04-10T18:22:12.142Z,5.93
2023-04-10T18:24:40.033Z,5.88
2023-04-10T18:27:09.352Z,5.79
2023-04-10T18:29:37.221Z,5.72
2023-04-10T18:32:05.473Z,5.67
2023-04-10T18:34:33.578Z,5.61
2023-04-10T18:37:01.647Z,5.53
2023-04-10T18:39:29.643Z,5.48
2023-04-10T18:41:58.110Z,5.40
2023-04-10T18:44:28.946Z,5.34
2023-04-10T18:47:04.449Z,5.28
2023-04-10T18:49:33.037Z,5.22
2023-04-10T18:52:01.700Z,5.19
2023-04-10T18:54:30.301Z,5.15
2023-04-10T18:56:58.114Z,5.04
2023-04-10T18:59:28.426Z,4.93
2023-04-10T19:01:56.264Z,4.74
2023-04-10T19:04:24.561Z,4.74
2023-04-10T19:06:52.744Z,4.72
2023-04-10T19:09:20.625Z,4.64
2023-04-10T19:11:48.544Z,4.59
2023-04-10T19:14:16.558Z,4.57
2023-04-10T19:16:45.800Z,4.52
2023-04-10T19:19:13.627Z,4.41
2023-04-10T19:21:41.447Z,4.32
2023-04-10T19:24:09.391Z,4.22
2023-04-10T19:26:37.982Z,4.13
2023-04-10T19:29:05.944Z,4.07
2023-04-10T19:31:33.931Z,4.04
2023-04-10T19:34:09.002Z,4.01
2023-04-10T19:36:37.474Z,3.99
2023-04-10T19:39:06.219Z,3.95
2023-04-10T19:41:34.166Z,3.88
2023-04-10T19:44:02.063Z,3.81
2023-04-10T19:46:30.037Z,3.72
2023-04-10T19:48:58.018Z,3.61
2023-04-10T19:51:27.462Z,3.53
2023-04-10T19:53:57.484Z,3.45
2023-04-10T19:56:26.937Z,3.38
2023-04-10T19:58:54.799Z,3.33
2023-04-10T20:01:24.141Z,3.19
2023-04-10T20:03:52.357Z,3.09
2023-04-10T20:06:21.542Z,3.03
2023-04-10T20:08:50.962Z,3.01
2023-04-10T20:11:18.882Z,2.97
2023-04-10T20:13:46.765Z,2.97
2023-04-10T20:16:14.737Z,2.97
2023-04-10T20:18:42.783Z,2.93
2023-04-10T20:21:10.648Z,2.89
2023-04-10T20:23:38.840Z,2.87
2023-04-10T20:26:08.642Z,2.85
2023-04-10T20:28:36.527Z,2.81
2023-04-10T20:31:04.465Z,2.76
2023-04-10T20:33:32.660Z,2.74
2023-04-10T20:36:00.731Z,2.73
2023-04-10T20:38:28.644Z,2.71
2023-04-10T20:40:56.588Z,2.69
2023-04-10T20:43:26.730Z,2.65
2023-04-10T20:45:54.323Z,2.57
2023-04-10T20:48:22.214Z,2.62
2023-04-10T20:50:50.228Z,2.62
2023-04-10T20:53:18.112Z,2.60
2023-04-10T20:55:46.254Z,2.57
2023-04-10T20:58:14.180Z,2.54
2023-04-10T21:00:43.519Z,2.52
2023-04-10T21:03:11.812Z,2.50
2023-04-10T21:05:41.466Z,2.46
2023-04-10T21:08:09.484Z,2.42
2023-04-10T21:10:43.829Z,2.37
2023-04-10T21:13:13.022Z,2.34
2023-04-10T21:15:41.098Z,2.29
2023-04-10T21:18:10.596Z,2.25
2023-04-10T21:20:38.520Z,2.24
2023-04-10T21:23:06.519Z,2.23
2023-04-10T21:25:36.337Z,2.22
2023-04-10T21:28:04.334Z,2.16
2023-04-10T21:30:32.206Z,2.11
2023-04-10T21:33:00.167Z,2.11
2023-04-10T21:35:29.622Z,2.11
2023-04-10T21:38:01.867Z,2.09
2023-04-10T21:40:34.216Z,2.05
2023-04-10T21:43:02.381Z,2.02
2023-04-10T21:45:30.365Z,2.01
2023-04-10T21:47:59.897Z,1.99
2023-04-10T21:50:29.466Z,1.96
2023-04-10T21:52:57.480Z,1.95
2023-04-10T21:55:25.393Z,1.95
2023-04-10T21:57:53.379Z,1.90
2023-04-10T22:00:23.058Z,1.85
2023-04-10T22:02:51.824Z,1.84
2023-04-10T22:05:20.048Z,1.76
2023-04-10T22:07:49.263Z,1.73
2023-04-10T22:10:17.338Z,1.71
2023-04-10T22:12:48.467Z,1.70
2023-04-10T22:15:17.047Z,1.68
2023-04-10T22:17:44.951Z,1.62
2023-04-10T22:20:13.157Z,1.55
2023-04-10T22:22:41.051Z,1.53
2023-04-10T22:25:10.877Z,1.48
2023-04-10T22:27:38.768Z,1.42
2023-04-10T22:30:09.780Z,1.39
2023-04-10T22:32:37.975Z,1.34
2023-04-10T22:35:06.944Z,1.31
2023-04-10T22:37:34.921Z,1.32
2023-04-10T22:40:02.830Z,1.31
2023-04-10T22:42:32.173Z,1.29
2023-04-10T22:45:00.194Z,1.25
2023-04-10T22:47:28.091Z,1.22
2023-04-10T22:49:55.971Z,1.19
2023-04-10T22:52:23.809Z,1.16
2023-04-10T22:54:51.684Z,1.11
2023-04-10T22:57:20.340Z,1.08
2023-04-10T22:59:49.680Z,1.05
2023-04-10T23:02:17.757Z,1.02
2023-04-10T23:04:45.794Z,1.03
2023-04-10T23:07:13.788Z,1.01
2023-04-10T23:09:41.600Z,1.01
2023-04-10T23:12:09.571Z,0.99
2023-04-10T23:14:37.624Z,1.01
2023-04-10T23:17:06.975Z,0.97
2023-04-10T23:19:36.937Z,0.93
2023-04-10T23:22:04.847Z,0.89
2023-04-10T23:24:32.748Z,0.86
2023-04-10T23:27:00.731Z,0.84
2023-04-10T23:29:28.886Z,0.83
2023-04-10T23:31:56.813Z,0.84
2023-04-10T23:34:26.667Z,0.81
2023-04-10T23:36:54.980Z,0.79
2023-04-10T23:39:23.053Z,0.79
2023-04-10T23:41:50.952Z,0.78
2023-04-10T23:44:18.877Z,0.79
2023-04-10T23:46:46.762Z,0.77
2023-04-10T23:49:14.782Z,0.75
2023-04-10T23:51:44.920Z,0.70
2023-04-10T23:54:12.776Z,0.67
2023-04-10T23:56:40.810Z,0.69
2023-04-10T23:59:08.813Z,0.69
